createdAt,value
2022-09-25T00:01:19.706Z,40.96
2022-09-25T00:03:47.692Z,40.85
2022-09-25T00:06:17.537Z,40.72
2022-09-25T00:08:46.621Z,40.75
2022-09-25T00:11:17.544Z,40.87
2022-09-25T00:13:46.719Z,40.91
2022-09-25T00:16:17.205Z,41.07
2022-09-25T00:19:03.806Z,41.19
2022-09-25T00:21:33.018Z,40.99
2022-09-25T00:24:03.260Z,40.92
2022-09-25T00:26:33.136Z,41.00
2022-09-25T00:29:01.683Z,40.95
2022-09-25T00:31:31.064Z,40.55
2022-09-25T00:34:01.957Z,40.75
2022-09-25T00:36:30.664Z,40.93
2022-09-25T00:38:58.729Z,40.68
2022-09-25T00:41:30.161Z,41.09
2022-09-25T00:43:59.245Z,40.80
2022-09-25T00:46:30.231Z,40.74
2022-09-25T00:49:04.268Z,40.61
2022-09-25T00:51:41.240Z,40.51
2022-09-25T00:54:14.627Z,40.65
2022-09-25T00:56:45.732Z,41.02
2022-09-25T00:59:18.084Z,40.85
2022-09-25T01:01:46.511Z,40.97
2022-09-25T01:04:16.555Z,40.79
2022-09-25T01:06:44.606Z,40.54
2022-09-25T01:09:12.960Z,40.73
2022-09-25T01:11:40.835Z,40.62
2022-09-25T01:14:10.722Z,40.88
2022-09-25T01:16:46.355Z,40.59
2022-09-25T01:19:38.188Z,40.48
2022-09-25T01:22:16.842Z,40.54
2022-09-25T01:24:56.355Z,40.40
2022-09-25T01:27:37.781Z,40.27
2022-09-25T01:30:13.732Z,40.39
2022-09-25T01:32:51.795Z,40.61
2022-09-25T01:35:26.865Z,40.46
2022-09-25T01:37:59.996Z,40.43
2022-09-25T01:40:33.514Z,40.48
2022-09-25T01:43:11.443Z,40.31
2022-09-25T01:45:48.028Z,40.29
2022-09-25T01:48:18.899Z,40.22
2022-09-25T01:50:51.406Z,40.28
2022-09-25T01:53:24.645Z,40.32
2022-09-25T01:55:57.521Z,40.15
2022-09-25T01:58:30.528Z,40.29
2022-09-25T02:01:06.587Z,40.14
2022-09-25T02:03:41.099Z,40.15
2022-09-25T02:06:11.404Z,40.02
2022-09-25T02:08:45.450Z,40.23
2022-09-25T02:11:14.322Z,40.29
2022-09-25T02:13:48.104Z,40.28
2022-09-25T02:16:20.824Z,40.20
2022-09-25T02:19:08.038Z,40.22
2022-09-25T02:21:45.638Z,40.28
2022-09-25T02:24:20.847Z,40.02
2022-09-25T02:26:49.750Z,40.07
2022-09-25T02:29:18.336Z,40.25
2022-09-25T02:31:50.683Z,40.35
2022-09-25T02:34:18.820Z,40.31
2022-09-25T02:36:47.236Z,40.22
2022-09-25T02:39:21.362Z,40.02
2022-09-25T02:42:05.746Z,40.08
2022-09-25T02:44:42.213Z,39.83
2022-09-25T02:47:23.282Z,40.18
2022-09-25T02:49:59.348Z,39.97
2022-09-25T02:52:34.442Z,40.22
2022-09-25T02:55:08.636Z,39.97
2022-09-25T02:57:44.589Z,40.23
2022-09-25T03:00:14.391Z,40.11
2022-09-25T03:02:49.762Z,39.87
2022-09-25T03:05:21.457Z,40.07
2022-09-25T03:08:07.198Z,39.71
2022-09-25T03:10:37.919Z,39.97
2022-09-25T03:13:16.174Z,39.54
2022-09-25T03:15:47.715Z,39.59
2022-09-25T03:18:17.150Z,39.57
2022-09-25T03:20:45.257Z,39.68
2022-09-25T03:23:14.057Z,39.63
2022-09-25T03:25:45.958Z,39.91
2022-09-25T03:28:18.787Z,39.85
2022-09-25T03:30:58.325Z,39.50
2022-09-25T03:33:28.953Z,39.88
2022-09-25T03:36:08.550Z,39.82
2022-09-25T03:38:36.781Z,39.70
2022-09-25T03:41:05.686Z,39.70
2022-09-25T03:43:36.721Z,39.79
2022-09-25T03:46:05.339Z,39.63
2022-09-25T03:48:34.884Z,39.47
2022-09-25T03:51:02.953Z,39.60
2022-09-25T03:53:33.604Z,39.48
2022-09-25T03:56:02.304Z,39.27
2022-09-25T03:58:30.658Z,39.29
2022-09-25T04:00:58.646Z,39.59
2022-09-25T04:03:28.032Z,39.53
2022-09-25T04:05:58.132Z,39.34
2022-09-25T04:08:26.804Z,39.29
2022-09-25T04:10:56.348Z,39.43
2022-09-25T04:13:24.927Z,39.24
2022-09-25T04:15:52.986Z,39.37
2022-09-25T04:18:20.938Z,39.30
2022-09-25T04:20:48.858Z,39.34
2022-09-25T04:23:18.212Z,39.43
2022-09-25T04:25:46.566Z,38.89
2022-09-25T04:28:14.485Z,39.33
2022-09-25T04:30:42.398Z,38.90
2022-09-25T04:33:28.203Z,39.20
2022-09-25T04:35:56.608Z,39.20
2022-09-25T04:38:25.997Z,39.26
2022-09-25T04:40:53.978Z,38.78
2022-09-25T04:43:22.911Z,39.03
2022-09-25T04:45:51.763Z,39.11
2022-09-25T04:48:19.943Z,39.16
2022-09-25T04:50:51.626Z,39.04
2022-09-25T04:53:19.658Z,38.68
2022-09-25T04:55:48.925Z,38.86
2022-09-25T04:58:16.836Z,38.65
2022-09-25T05:00:44.843Z,38.61
2022-09-25T05:03:12.887Z,38.42
2022-09-25T05:05:40.819Z,38.44
2022-09-25T05:08:08.789Z,38.30
2022-09-25T05:10:39.573Z,38.36
2022-09-25T05:13:10.257Z,38.24
2022-09-25T05:15:38.222Z,38.51
2022-09-25T05:18:08.253Z,38.21
2022-09-25T05:20:37.265Z,38.67
2022-09-25T05:23:05.203Z,38.57
2022-09-25T05:25:33.472Z,38.70
2022-09-25T05:28:02.630Z,38.38
2022-09-25T05:30:33.386Z,38.56
2022-09-25T05:33:01.487Z,38.48
2022-09-25T05:35:30.891Z,38.54
2022-09-25T05:37:59.270Z,38.28
2022-09-25T05:40:27.829Z,38.36
2022-09-25T05:42:56.279Z,38.50
2022-09-25T05:45:25.000Z,38.39
2022-09-25T05:48:03.042Z,38.53
2022-09-25T05:50:32.448Z,38.39
2022-09-25T05:53:01.776Z,38.31
2022-09-25T05:55:29.986Z,38.63
2022-09-25T05:58:02.053Z,38.78
2022-09-25T06:00:32.771Z,38.68
2022-09-25T06:03:02.894Z,38.54
2022-09-25T06:05:31.125Z,38.54
2022-09-25T06:07:59.053Z,38.93
2022-09-25T06:10:27.418Z,38.89
2022-09-25T06:12:58.928Z,38.85
2022-09-25T06:15:27.987Z,38.50
2022-09-25T06:17:56.326Z,38.56
2022-09-25T06:20:26.071Z,38.70
2022-09-25T06:22:54.681Z,38.76
2022-09-25T06:25:23.783Z,39.08
2022-09-25T06:27:54.214Z,39.06
2022-09-25T06:30:22.495Z,39.02
2022-09-25T06:32:51.547Z,38.85
2022-09-25T06:35:19.500Z,38.96
2022-09-25T06:37:48.759Z,38.93
2022-09-25T06:40:16.882Z,39.06
2022-09-25T06:42:46.262Z,38.80
2022-09-25T06:45:14.518Z,39.25
2022-09-25T06:47:42.416Z,39.32
2022-09-25T06:50:12.353Z,38.99
2022-09-25T06:52:43.598Z,39.04
2022-09-25T06:55:12.971Z,39.21
2022-09-25T06:57:40.894Z,39.27
2022-09-25T07:00:10.231Z,39.14
2022-09-25T07:02:55.499Z,39.37
2022-09-25T07:05:23.484Z,39.04
2022-09-25T07:07:51.354Z,39.25
2022-09-25T07:10:20.597Z,39.24
2022-09-25T07:12:48.530Z,39.23
2022-09-25T07:15:16.697Z,39.63
2022-09-25T07:17:45.137Z,39.48
2022-09-25T07:20:15.469Z,39.53
2022-09-25T07:22:44.120Z,39.66
2022-09-25T07:25:12.837Z,39.78
2022-09-25T07:27:42.112Z,39.78
2022-09-25T07:30:11.303Z,39.92
2022-09-25T07:32:39.257Z,39.76
2022-09-25T07:35:07.693Z,40.29
2022-09-25T07:37:35.603Z,40.33
2022-09-25T07:40:03.596Z,40.12
2022-09-25T07:42:31.618Z,40.50
2022-09-25T07:45:00.872Z,40.26
2022-09-25T07:47:28.787Z,40.70
2022-09-25T07:49:56.680Z,40.55
2022-09-25T07:52:24.645Z,40.66
2022-09-25T07:54:52.646Z,40.50
2022-09-25T07:57:21.322Z,40.47
2022-09-25T07:59:49.475Z,40.66
2022-09-25T08:02:18.837Z,40.83
2022-09-25T08:04:46.873Z,40.71
2022-09-25T08:07:14.816Z,41.08
2022-09-25T08:09:42.771Z,41.11
2022-09-25T08:12:12.972Z,41.08
2022-09-25T08:14:41.846Z,41.35
2022-09-25T08:17:09.760Z,41.39
2022-09-25T08:19:39.015Z,41.71
2022-09-25T08:22:06.995Z,41.82
2022-09-25T08:24:34.962Z,41.59
2022-09-25T08:27:02.842Z,41.57
2022-09-25T08:29:31.149Z,41.64
2022-09-25T08:31:59.049Z,41.60
2022-09-25T08:34:42.981Z,41.90
2022-09-25T08:37:12.887Z,41.88
2022-09-25T08:39:40.774Z,41.54
2022-09-25T08:42:19.828Z,41.41
2022-09-25T08:45:21.935Z,41.17
2022-09-25T08:48:11.302Z,40.93
2022-09-25T08:50:39.314Z,40.64
2022-09-25T08:53:15.458Z,40.24
2022-09-25T08:56:00.848Z,40.45
2022-09-25T08:58:31.539Z,39.86
2022-09-25T09:01:03.420Z,39.63
2022-09-25T09:03:33.938Z,39.47
2022-09-25T09:06:05.872Z,39.26
2022-09-25T09:08:39.348Z,39.40
2022-09-25T09:11:13.734Z,39.07
2022-09-25T09:13:47.611Z,39.12
2022-09-25T09:16:24.387Z,38.75
2022-09-25T09:18:52.558Z,38.86
2022-09-25T09:21:26.565Z,39.00
2022-09-25T09:24:07.632Z,38.76
2022-09-25T09:26:52.106Z,38.80
2022-09-25T09:29:53.100Z,38.77
2022-09-25T09:32:37.697Z,38.58
2022-09-25T09:35:15.886Z,38.84
2022-09-25T09:37:54.300Z,38.44
2022-09-25T09:40:33.656Z,38.52
2022-09-25T09:43:07.492Z,38.51
2022-09-25T09:45:44.315Z,38.59
2022-09-25T09:48:18.645Z,38.44
2022-09-25T09:50:52.845Z,38.30
2022-09-25T09:53:30.966Z,38.50
2022-09-25T09:56:05.699Z,38.25
2022-09-25T09:58:45.113Z,38.42
2022-09-25T10:01:36.551Z,38.37
2022-09-25T10:04:06.225Z,38.12
2022-09-25T10:06:38.757Z,37.84
2022-09-25T10:09:08.805Z,38.04
2022-09-25T10:11:39.044Z,37.76
2022-09-25T10:14:07.074Z,37.85
2022-09-25T10:16:35.304Z,37.54
2022-09-25T10:19:07.546Z,37.21
2022-09-25T10:21:41.434Z,36.85
2022-09-25T10:24:09.666Z,36.85
2022-09-25T10:26:40.707Z,36.96
2022-09-25T10:29:27.722Z,36.76
2022-09-25T10:32:00.882Z,36.52
2022-09-25T10:34:29.738Z,36.67
2022-09-25T10:36:58.091Z,36.46
2022-09-25T10:39:44.180Z,36.20
2022-09-25T10:42:38.614Z,36.21
2022-09-25T10:45:31.859Z,36.05
2022-09-25T10:48:17.340Z,36.03
2022-09-25T10:50:45.838Z,36.25
2022-09-25T10:53:30.423Z,36.22
2022-09-25T10:56:05.152Z,36.19
2022-09-25T10:58:40.522Z,36.02
2022-09-25T11:01:13.752Z,36.12
2022-09-25T11:03:50.436Z,36.07
2022-09-25T11:06:24.870Z,36.12
2022-09-25T11:09:07.720Z,36.13
2022-09-25T11:11:36.805Z,36.33
2022-09-25T11:14:08.661Z,36.17
2022-09-25T11:16:48.700Z,36.15
2022-09-25T11:19:22.708Z,36.16
2022-09-25T11:22:04.840Z,36.05
2022-09-25T11:24:47.093Z,35.97
2022-09-25T11:27:21.653Z,36.23
2022-09-25T11:30:02.550Z,36.29
2022-09-25T11:32:40.061Z,36.28
2022-09-25T11:35:22.663Z,36.23
2022-09-25T11:38:04.005Z,36.33
2022-09-25T11:40:58.419Z,36.25
2022-09-25T11:43:38.914Z,36.54
2022-09-25T11:46:24.271Z,36.50
2022-09-25T11:49:01.690Z,36.56
2022-09-25T11:51:50.509Z,36.45
2022-09-25T11:54:33.755Z,36.44
2022-09-25T11:57:07.647Z,36.43
2022-09-25T11:59:52.818Z,36.24
2022-09-25T12:02:41.770Z,36.28
2022-09-25T12:05:35.124Z,36.21
2022-09-25T12:08:20.021Z,36.22
2022-09-25T12:10:58.335Z,36.30
2022-09-25T12:13:39.724Z,36.14
2022-09-25T12:16:18.624Z,36.44
2022-09-25T12:19:08.706Z,36.20
2022-09-25T12:21:47.879Z,36.17
2022-09-25T12:24:30.553Z,36.06
2022-09-25T12:27:10.384Z,36.06
2022-09-25T12:30:16.727Z,36.08
2022-09-25T12:33:09.326Z,36.26
2022-09-25T12:35:44.763Z,36.68
2022-09-25T12:38:23.541Z,36.99
2022-09-25T12:40:56.739Z,36.83
2022-09-25T12:43:29.068Z,36.81
2022-09-25T12:46:03.567Z,36.57
2022-09-25T12:48:37.420Z,36.61
2022-09-25T12:51:13.343Z,36.46
2022-09-25T12:53:45.532Z,36.53
2022-09-25T12:56:17.629Z,36.17
2022-09-25T12:58:53.158Z,36.41
2022-09-25T13:01:28.029Z,36.19
2022-09-25T13:04:06.054Z,36.17
2022-09-25T13:06:46.853Z,36.19
2022-09-25T13:09:24.041Z,36.43
2022-09-25T13:11:57.382Z,36.09
2022-09-25T13:14:33.075Z,36.12
2022-09-25T13:17:01.237Z,36.22
2022-09-25T13:19:32.440Z,36.25
2022-09-25T13:22:07.262Z,36.11
2022-09-25T13:24:43.784Z,36.23
2022-09-25T13:27:18.933Z,36.23
2022-09-25T13:29:57.794Z,36.09
2022-09-25T13:32:29.131Z,36.15
2022-09-25T13:35:01.490Z,36.16
2022-09-25T13:37:34.357Z,36.20
2022-09-25T13:40:31.609Z,36.52
2022-09-25T13:43:18.268Z,36.50
2022-09-25T13:45:46.504Z,37.09
2022-09-25T13:48:34.221Z,37.00
2022-09-25T13:51:35.757Z,37.17
2022-09-25T13:54:25.221Z,37.42
2022-09-25T13:56:55.256Z,37.51
2022-09-25T13:59:25.733Z,37.54
2022-09-25T14:01:56.834Z,37.79
2022-09-25T14:04:31.846Z,37.64
2022-09-25T14:07:18.898Z,37.90
2022-09-25T14:09:53.637Z,37.98
2022-09-25T14:12:35.038Z,38.12
2022-09-25T14:15:07.341Z,38.07
2022-09-25T14:17:37.469Z,38.21
2022-09-25T14:20:11.201Z,38.30
2022-09-25T14:22:44.558Z,38.25
2022-09-25T14:25:33.068Z,38.29
2022-09-25T14:28:01.661Z,38.37
2022-09-25T14:30:31.540Z,38.51
2022-09-25T14:33:35.538Z,38.51
2022-09-25T14:36:11.496Z,38.63
2022-09-25T14:38:57.669Z,38.48
2022-09-25T14:41:53.050Z,38.56
2022-09-25T14:44:55.657Z,38.59
2022-09-25T14:47:23.773Z,38.58
2022-09-25T14:49:54.235Z,38.71
2022-09-25T14:52:25.586Z,38.66
2022-09-25T14:54:57.088Z,38.65
2022-09-25T14:57:30.066Z,38.79
2022-09-25T15:00:02.689Z,38.69
2022-09-25T15:02:35.301Z,38.82
2022-09-25T15:05:18.949Z,38.79
2022-09-25T15:07:47.729Z,38.83
2022-09-25T15:10:28.948Z,38.87
2022-09-25T15:13:07.254Z,38.74
2022-09-25T15:15:35.820Z,38.82
2022-09-25T15:18:04.807Z,38.76
2022-09-25T15:20:34.596Z,38.91
2022-09-25T15:23:06.741Z,38.73
2022-09-25T15:25:39.228Z,38.71
2022-09-25T15:28:10.082Z,38.66
2022-09-25T15:30:40.078Z,38.90
2022-09-25T15:33:20.974Z,38.95
2022-09-25T15:35:55.753Z,38.65
2022-09-25T15:38:30.510Z,38.80
2022-09-25T15:40:59.247Z,38.82
2022-09-25T15:43:30.041Z,38.95
2022-09-25T15:45:59.488Z,38.97
2022-09-25T15:48:32.758Z,38.89
2022-09-25T15:51:06.782Z,38.99
2022-09-25T15:53:39.883Z,38.94
2022-09-25T15:56:17.859Z,38.92
2022-09-25T15:58:51.192Z,38.93
2022-09-25T16:01:40.656Z,39.10
2022-09-25T16:04:28.621Z,38.83
2022-09-25T16:06:56.565Z,38.94
2022-09-25T16:09:31.767Z,38.94
2022-09-25T16:12:20.313Z,39.00
2022-09-25T16:14:50.522Z,39.05
2022-09-25T16:17:24.628Z,38.96
2022-09-25T16:20:04.193Z,38.96
2022-09-25T16:22:45.820Z,38.90
2022-09-25T16:25:21.113Z,38.88
2022-09-25T16:27:49.566Z,39.01
2022-09-25T16:30:22.329Z,38.85
2022-09-25T16:32:53.265Z,38.95
2022-09-25T16:35:26.062Z,39.00
2022-09-25T16:37:54.789Z,39.26
2022-09-25T16:40:26.542Z,39.29
2022-09-25T16:42:56.890Z,39.49
2022-09-25T16:45:29.719Z,39.46
2022-09-25T16:47:58.891Z,39.32
2022-09-25T16:50:29.237Z,39.74
2022-09-25T16:52:57.112Z,39.85
2022-09-25T16:55:27.421Z,40.02
2022-09-25T16:57:56.622Z,39.84
2022-09-25T17:00:28.776Z,39.77
2022-09-25T17:02:57.211Z,39.83
2022-09-25T17:05:27.650Z,39.81
2022-09-25T17:07:57.855Z,39.78
2022-09-25T17:10:28.661Z,39.83
2022-09-25T17:12:59.051Z,39.72
2022-09-25T17:15:32.771Z,39.79
2022-09-25T17:18:02.048Z,40.05
2022-09-25T17:20:32.032Z,39.88
2022-09-25T17:23:00.433Z,39.92
2022-09-25T17:25:39.875Z,39.89
2022-09-25T17:28:09.470Z,39.98
2022-09-25T17:30:39.478Z,39.92
2022-09-25T17:33:08.022Z,39.79
2022-09-25T17:35:41.510Z,39.91
2022-09-25T17:38:09.978Z,39.86
2022-09-25T17:40:37.930Z,39.97
2022-09-25T17:43:06.082Z,39.95
2022-09-25T17:45:44.761Z,39.99
2022-09-25T17:48:13.100Z,40.10
2022-09-25T17:50:41.088Z,40.10
2022-09-25T17:53:17.238Z,40.01
2022-09-25T17:55:51.216Z,40.16
2022-09-25T17:58:22.109Z,40.01
2022-09-25T18:00:52.448Z,40.06
2022-09-25T18:03:21.526Z,40.06
2022-09-25T18:05:49.759Z,40.06
2022-09-25T18:08:18.096Z,39.93
2022-09-25T18:10:46.573Z,40.03
2022-09-25T18:13:20.052Z,39.95
2022-09-25T18:15:51.079Z,40.11
2022-09-25T18:18:20.938Z,40.00
2022-09-25T18:21:09.334Z,40.03
2022-09-25T18:23:39.101Z,40.03
2022-09-25T18:26:10.121Z,40.05
2022-09-25T18:28:38.292Z,40.05
2022-09-25T18:31:07.092Z,40.04
2022-09-25T18:33:39.003Z,39.94
2022-09-25T18:36:09.079Z,39.96
2022-09-25T18:38:39.146Z,39.96
2022-09-25T18:41:07.908Z,40.08
2022-09-25T18:43:36.183Z,40.01
2022-09-25T18:46:04.487Z,39.85
2022-09-25T18:48:32.686Z,39.89
2022-09-25T18:51:05.755Z,39.83
2022-09-25T18:53:33.919Z,39.92
2022-09-25T18:56:02.514Z,39.96
2022-09-25T18:58:32.857Z,39.90
2022-09-25T19:01:01.700Z,39.64
2022-09-25T19:03:30.297Z,39.57
2022-09-25T19:06:01.571Z,39.55
2022-09-25T19:08:31.566Z,39.50
2022-09-25T19:11:01.749Z,39.58
2022-09-25T19:13:31.441Z,39.54
2022-09-25T19:16:01.328Z,39.50
2022-09-25T19:18:31.654Z,39.31
2022-09-25T19:21:02.019Z,39.16
2022-09-25T19:23:35.528Z,39.21
2022-09-25T19:26:06.822Z,39.21
2022-09-25T19:28:36.967Z,39.25
2022-09-25T19:31:07.750Z,39.23
2022-09-25T19:33:39.190Z,39.16
2022-09-25T19:36:09.646Z,39.23
2022-09-25T19:38:41.662Z,39.23
2022-09-25T19:41:13.827Z,39.00
2022-09-25T19:43:42.604Z,39.01
2022-09-25T19:46:14.499Z,39.07
2022-09-25T19:48:43.764Z,39.17
2022-09-25T19:51:12.169Z,38.94
2022-09-25T19:53:42.976Z,38.99
2022-09-25T19:56:12.170Z,38.93
2022-09-25T19:58:40.839Z,38.94
2022-09-25T20:01:13.096Z,38.72
2022-09-25T20:03:42.761Z,38.86
2022-09-25T20:06:11.756Z,38.90
2022-09-25T20:08:41.570Z,38.77
2022-09-25T20:11:18.613Z,38.84
2022-09-25T20:13:48.131Z,38.84
2022-09-25T20:16:18.429Z,39.10
2022-09-25T20:18:49.397Z,38.86
2022-09-25T20:21:21.374Z,38.96
2022-09-25T20:23:52.602Z,38.81
2022-09-25T20:26:21.507Z,38.57
2022-09-25T20:28:53.761Z,38.77
2022-09-25T20:31:22.597Z,38.58
2022-09-25T20:33:50.542Z,38.71
2022-09-25T20:36:19.247Z,38.72
2022-09-25T20:38:51.686Z,38.72
2022-09-25T20:41:20.533Z,38.79
2022-09-25T20:43:51.146Z,38.77
2022-09-25T20:46:20.450Z,38.51
2022-09-25T20:48:51.134Z,38.56
2022-09-25T20:51:21.162Z,38.61
2022-09-25T20:53:52.516Z,38.62
2022-09-25T20:56:21.851Z,38.35
2022-09-25T20:58:53.260Z,38.49
2022-09-25T21:01:24.422Z,38.61
2022-09-25T21:03:53.336Z,38.25
2022-09-25T21:06:23.742Z,38.53
2022-09-25T21:08:54.874Z,38.43
2022-09-25T21:11:24.233Z,38.45
2022-09-25T21:13:53.642Z,38.39
2022-09-25T21:16:23.106Z,38.52
2022-09-25T21:18:53.772Z,38.42
2022-09-25T21:21:21.734Z,38.34
2022-09-25T21:23:51.604Z,38.25
2022-09-25T21:26:21.896Z,38.45
2022-09-25T21:28:51.591Z,38.50
2022-09-25T21:31:21.832Z,38.32
2022-09-25T21:33:52.077Z,38.42
2022-09-25T21:36:20.584Z,38.59
2022-09-25T21:38:49.180Z,38.57
2022-09-25T21:41:18.877Z,38.54
2022-09-25T21:43:48.410Z,38.33
2022-09-25T21:46:18.736Z,38.45
2022-09-25T21:48:49.963Z,38.41
2022-09-25T21:51:19.687Z,38.58
2022-09-25T21:53:48.019Z,38.37
2022-09-25T21:56:17.354Z,38.18
2022-09-25T21:58:45.868Z,38.30
2022-09-25T22:01:17.375Z,38.46
2022-09-25T22:03:48.138Z,38.14
2022-09-25T22:06:18.412Z,38.33
2022-09-25T22:08:49.368Z,38.39
2022-09-25T22:11:17.894Z,38.51
2022-09-25T22:13:47.354Z,38.26
2022-09-25T22:16:19.392Z,38.30
2022-09-25T22:18:49.869Z,38.51
2022-09-25T22:21:20.319Z,38.48
2022-09-25T22:23:48.853Z,38.35
2022-09-25T22:26:18.190Z,38.47
2022-09-25T22:28:46.533Z,38.33
2022-09-25T22:31:17.691Z,38.28
2022-09-25T22:33:46.532Z,38.28
2022-09-25T22:36:14.783Z,38.53
2022-09-25T22:38:42.769Z,38.33
2022-09-25T22:41:13.180Z,38.25
2022-09-25T22:43:42.401Z,38.31
2022-09-25T22:46:12.000Z,38.31
2022-09-25T22:48:41.344Z,38.54
2022-09-25T22:51:12.896Z,38.47
2022-09-25T22:53:42.688Z,38.36
2022-09-25T22:56:13.081Z,38.33
2022-09-25T22:58:41.962Z,38.39
2022-09-25T23:01:13.340Z,38.37
2022-09-25T23:03:42.800Z,38.52
2022-09-25T23:06:10.767Z,38.54
2022-09-25T23:08:38.642Z,38.50
2022-09-25T23:11:08.569Z,38.46
2022-09-25T23:13:37.334Z,38.72
2022-09-25T23:16:07.382Z,38.76
2022-09-25T23:18:35.787Z,38.83
2022-09-25T23:21:05.526Z,38.63
2022-09-25T23:23:33.627Z,38.98
2022-09-25T23:26:03.504Z,38.90
2022-09-25T23:28:33.522Z,39.06
2022-09-25T23:31:07.334Z,39.05
2022-09-25T23:33:35.585Z,39.19
2022-09-25T23:36:06.666Z,39.28
2022-09-25T23:38:34.907Z,39.32
2022-09-25T23:41:03.411Z,39.37
2022-09-25T23:43:31.329Z,39.22
2022-09-25T23:45:59.260Z,39.42
2022-09-25T23:48:27.132Z,39.40
2022-09-25T23:50:55.027Z,39.42
2022-09-25T23:53:24.297Z,39.42
2022-09-25T23:55:52.157Z,39.54
2022-09-25T23:58:20.095Z,39.63
